ADDS METAR Data INFO
IDs: Format: Raw Decoded Include TAF

Data at: 1938 UTC 17 Feb 2018

KFZY 171854Z AUTO 12005KT 10SM CLR M01/M09 A3014 RMK AO2 SLP211 T10061089
KFZY 171754Z AUTO 12007KT 10SM CLR M01/M10 A3019 RMK AO2 SLP230 T10061100 11006 21050 58036
KFZY 171654Z AUTO 17006KT 10SM CLR M01/M09 A3025 RMK AO2 SLP251 T10111089
KFZY 171554Z AUTO 16007KT 10SM CLR M02/M09 A3027 RMK AO2 SLP258 T10221094
KFZY 171454Z AUTO 18006KT 10SM CLR M03/M09 A3030 RMK AO2 SLP267 T10281089 58012
KFZY 171354Z AUTO 18009KT 10SM CLR M03/M08 A3032 RMK AO2 SLP273 T10331083
KFZY 171254Z AUTO 17005KT 10SM SCT030 BKN036 M05/M08 A3034 RMK AO2 SLP281 T10501083
KFZY 171154Z AUTO 17006KT 10SM OVC037 M05/M09 A3034 RMK AO2 SLP279 70001 T10501089 11039 21072 51009
KFZY 171054Z AUTO 18005KT 10SM OVC034 M05/M09 A3033 RMK AO2 SLP277 T10501089
KFZY 170954Z AUTO 20005KT 10SM SCT032 M06/M09 A3032 RMK AO2 SLP274 T10611089
KFZY 170854Z AUTO 00000KT 10SM FEW032 M07/M09 A3031 RMK AO2 SLP270 T10671089 53014
KFZY 170754Z AUTO 00000KT 10SM BKN030 M06/M09 A3029 RMK AO2 SLP264 T10561089
KFZY 170654Z AUTO 32003KT 10SM BKN031 M04/M09 A3028 RMK AO2 SLP260 T10441094
KFZY 170633Z AUTO 33003KT 10SM BKN030 M04/M09 A3028 RMK AO2 T10441094
KFZY 170619Z AUTO 32004KT 10SM BKN029 M04/M09 A3027 RMK AO2 T10391094
KFZY 170554Z AUTO 29007KT 10SM SCT029 M04/M10 A3027 RMK AO2 SLP255 T10441100 11022 21044 51021
KFZY 170454Z AUTO 30009KT 10SM CLR M04/M09 A3025 RMK AO2 SLP249 T10441094 400561044
KFZY 170354Z AUTO 31009KT 10SM CLR M04/M10 A3023 RMK AO2 SLP242 T10391100
KFZY 170254Z AUTO 30015KT 10SM CLR M03/M09 A3020 RMK AO2 SLP233 T10331094 51035
KFZY 170154Z AUTO 29016G22KT 10SM CLR M03/M09 A3018 RMK AO2 PK WND 28026/0131 SLP225 T10331094
KFZY 170054Z AUTO 30017G23KT 10SM OVC050 M02/M09 A3013 RMK AO2 PK WND 28029/2357 SLP210 T10221089
KFZY 162354Z AUTO 28015G29KT 10SM BKN046 M02/M09 A3010 RMK AO2 PK WND 28029/2319 SLP197 60000 T10221089 10017 21022 53060
KFZY 162254Z AUTO 29021G30KT 10SM CLR M01/M07 A3003 RMK AO2 PK WND 29034/2222 SLP173 T10111067
KFZY 162154Z AUTO 28016G26KT 10SM CLR 00/M05 A2997 RMK AO2 PK WND 27032/2103 SLP154 T00001050
KFZY 162114Z AUTO 29025G32KT 10SM SCT021 01/M04 A2994 RMK AO2 PK WND 27032/2103 T00061044
KFZY 162054Z AUTO 28019G28KT 10SM BKN021 01/M04 A2992 RMK AO2 PK WND 27032/2031 SLP136 60000 T00061039 53042
KFZY 161954Z AUTO 28016G26KT 10SM OVC016 01/M02 A2987 RMK AO2 PK WND 30027/1934 SLP119 T00111022
KFZY 161854Z AUTO 29017G24KT 10SM BKN010 OVC014 02/00 A2982 RMK AO2 PK WND 29026/1844 UPB37E39SNE37 CIG 006V012 SLP101 P0000 T00170000
KFZY 161838Z AUTO 28012G20KT 7SM UP OVC008 02/00 A2981 RMK AO2 UPB37SNE37 CIG 006V010 P0000 T00170000
KFZY 161831Z AUTO 28013KT 2 1/2SM -SN BR OVC006 02/00 A2981 RMK AO2 CIG 005V010 P0000 T00170000
KFZY 161820Z AUTO 29014G21KT 1 3/4SM -SN BR OVC006 02/00 A2980 RMK AO2 CIG 005V010 P0000 T00170000
KFZY 161805Z AUTO 29015KT 2 1/2SM -SN BR OVC006 02/00 A2979 RMK AO2 CIG 005V011 P0000 T00170000
KFZY 161754Z AUTO 28014G21KT 1 3/4SM -SN BR OVC006 02/00 A2979 RMK AO2 UPB11E31RAB15E28SNB31 SLP092 P0001 60001 T00170000 10028 20017 53023
KFZY 161743Z AUTO 29013G20KT 2 1/2SM -SN BR OVC006 02/00 A2979 RMK AO2 UPB11E31RAB15E28SNB31 P0000 T00170000
KFZY 161654Z AUTO 28012G21KT 4SM BR OVC007 02/01 A2976 RMK AO2 SLP081 T00170006
KFZY 161611Z AUTO 27011G19KT 3SM BR OVC007 02/01 A2973 RMK AO2 T00220006
KFZY 161603Z AUTO 28012KT 3SM BR OVC005 02/01 A2974 RMK AO2 CIG 005V009 T00220006
KFZY 161554Z AUTO 28013KT 2 1/2SM BR OVC005 02/01 A2973 RMK AO2 UPE05B21E30 CIG 004V008 SLP071 P0000 T00220006
KFZY 161544Z AUTO 28012KT 2SM BR OVC005 02/01 A2973 RMK AO2 UPE05B21E30 P0000 T00220011
KFZY 161454Z AUTO 29010KT 1 1/4SM UP BR OVC005 02/01 A2972 RMK AO2 RAB42E43UPB43 SLP068 P0000 60000 T00220011 53019
KFZY 161433Z AUTO 29011KT 1 3/4SM BR BKN006 OVC017 02/01 A2970 RMK AO2 T00220011
KFZY 161425Z AUTO 29009KT 2SM BR BKN006 OVC017 03/02 A2969 RMK AO2 T00280017
KFZY 161354Z AUTO 28006KT 2 1/2SM BR FEW005 OVC015 03/02 A2966 RMK AO2 SLP047 T00280017
KFZY 161350Z AUTO 28006KT 2 1/2SM BR SCT005 BKN015 OVC021 03/02 A2967 RMK AO2
KFZY 161322Z AUTO 27006KT 2SM BR BKN005 BKN019 OVC025 03/02 A2968 RMK AO2 T00280017
KFZY 161303Z AUTO 27006KT 2SM BR FEW004 BKN025 OVC035 03/02 A2966 RMK AO2 T00280017
KFZY 161254Z AUTO 26007KT 2SM BR BKN029 OVC037 02/02 A2967 RMK AO2 SLP049 T00220017
KFZY 161227Z AUTO 30005KT 2SM BR OVC028 02/01 A2966 RMK AO2 T00220011
KFZY 161218Z AUTO 32004KT 3SM BR OVC028 02/02 A2964 RMK AO2 T00220017
KFZY 161154Z AUTO 28003KT 2 1/2SM BR BKN028 02/01 A2965 RMK AO2 SLP044 60001 70003 T00170011 10044 20011 51007
KFZY 161151Z AUTO 28003KT 2 1/2SM BR BKN028 02/01 A2965 RMK AO2
KFZY 161119Z AUTO 00000KT 2 1/2SM BR CLR 02/02 A2964 RMK AO2 T00220017
KFZY 161054Z AUTO 30003KT 1 1/2SM BR SCT003 02/01 A2964 RMK AO2 SLP041 T00220011
KFZY 161052Z AUTO 30003KT 1 1/4SM BR SCT003 02/01 A2965 RMK AO2
KFZY 160954Z AUTO 26003KT 1/4SM FG VV001 02/02 A2963 RMK AO2 SLP036 T00220017
KFZY 160854Z AUTO 00000KT 1/4SM FG VV002 03/02 A2962 RMK AO2 SLP032 60001 T00280022 58013
KFZY 160754Z AUTO 00000KT 1/4SM FG VV002 02/01 A2965 RMK AO2 SLP041 T00220011
KFZY 160739Z AUTO 00000KT 1/4SM FG VV002 02/02 A2964 RMK AO2 T00220017